createdAt,value
2017-10-07T00:02:03.764Z,64.0
2017-10-07T00:07:03.579Z,64.0
2017-10-07T00:12:03.577Z,63.8
2017-10-07T00:17:03.599Z,64.3
2017-10-07T00:22:03.056Z,64.2
2017-10-07T00:27:03.834Z,64.5
2017-10-07T00:32:03.370Z,64.1
2017-10-07T00:37:03.930Z,64.2
2017-10-07T00:42:03.534Z,64.0
2017-10-07T00:47:03.334Z,63.8
2017-10-07T00:52:03.678Z,63.8
2017-10-07T00:57:03.134Z,63.8
2017-10-07T01:02:03.926Z,63.7
2017-10-07T01:07:03.371Z,63.7
2017-10-07T01:12:03.409Z,63.6
2017-10-07T01:17:04.024Z,63.7
2017-10-07T01:22:03.654Z,63.8
2017-10-07T01:27:03.316Z,63.8
2017-10-07T01:32:03.755Z,64.2
2017-10-07T01:37:03.665Z,64.4
2017-10-07T01:42:03.182Z,64.4
2017-10-07T01:47:03.926Z,64.5
2017-10-07T01:52:03.031Z,64.2
2017-10-07T01:57:03.957Z,64.1
2017-10-07T02:02:03.736Z,63.8
2017-10-07T02:07:03.412Z,63.8
2017-10-07T02:12:03.365Z,63.9
2017-10-07T02:17:03.970Z,63.9
2017-10-07T02:22:03.591Z,63.9
2017-10-07T02:27:03.273Z,63.9
2017-10-07T02:32:03.775Z,63.6
2017-10-07T02:37:03.798Z,63.6
2017-10-07T02:42:03.798Z,63.4
2017-10-07T02:47:03.954Z,63.4
2017-10-07T02:52:03.110Z,63.4
2017-10-07T02:57:03.209Z,63.3
2017-10-07T03:02:03.367Z,63.3
2017-10-07T03:07:03.482Z,63.1
2017-10-07T03:12:03.699Z,63.2
2017-10-07T03:17:03.838Z,63.2
2017-10-07T03:22:04.013Z,63.3
2017-10-07T03:27:03.082Z,63.2
2017-10-07T03:32:03.334Z,63.3
2017-10-07T03:37:03.406Z,63.2
2017-10-07T03:42:03.446Z,63.2
2017-10-07T03:47:03.588Z,63.0
2017-10-07T03:52:03.609Z,63.1
2017-10-07T03:57:03.707Z,63.1
2017-10-07T04:02:03.806Z,63.2
2017-10-07T04:07:03.165Z,63.2
2017-10-07T04:12:03.457Z,63.2
2017-10-07T04:17:03.543Z,63.2
2017-10-07T04:22:03.658Z,63.3
2017-10-07T04:27:03.665Z,63.4
2017-10-07T04:32:03.698Z,63.4
2017-10-07T04:37:03.827Z,63.4
2017-10-07T04:42:03.817Z,63.4
2017-10-07T04:47:03.860Z,63.3
2017-10-07T04:52:02.962Z,63.3
2017-10-07T04:57:03.097Z,63.4
2017-10-07T05:02:10.152Z,63.7
2017-10-07T05:07:03.504Z,63.7
2017-10-07T05:12:03.829Z,63.6
2017-10-07T05:17:23.644Z,63.4
2017-10-07T05:22:03.326Z,63.2
2017-10-07T05:27:03.499Z,63.4
2017-10-07T05:32:24.991Z,63.3
2017-10-07T05:37:03.398Z,63.6
2017-10-07T05:42:03.613Z,63.6
2017-10-07T05:47:27.584Z,63.6
2017-10-07T05:52:03.480Z,63.7
2017-10-07T05:57:03.726Z,63.6
2017-10-07T06:02:28.567Z,63.8
2017-10-07T06:07:03.715Z,63.7
2017-10-07T06:12:03.076Z,64.0
2017-10-07T06:17:28.510Z,64.0
2017-10-07T06:22:03.196Z,64.0
2017-10-07T06:27:03.436Z,63.7
2017-10-07T06:32:28.576Z,63.7
2017-10-07T06:37:03.815Z,63.5
2017-10-07T06:42:03.069Z,62.8
2017-10-07T06:47:24.992Z,62.4
2017-10-07T06:52:03.202Z,62.0
2017-10-07T06:57:03.463Z,61.6
2017-10-07T07:02:21.768Z,61.2
2017-10-07T07:07:03.123Z,61.0
2017-10-07T07:12:03.521Z,61.3
2017-10-07T07:17:27.256Z,61.4
2017-10-07T07:22:03.403Z,61.5
2017-10-07T07:27:03.681Z,61.9
2017-10-07T07:32:28.180Z,61.6
2017-10-07T07:37:03.142Z,61.4
2017-10-07T07:42:03.842Z,61.5
2017-10-07T07:47:22.695Z,62.1
2017-10-07T07:52:03.523Z,62.2
2017-10-07T07:57:03.522Z,62.2
2017-10-07T08:02:28.652Z,62.0
2017-10-07T08:07:03.720Z,61.7
2017-10-07T08:12:03.055Z,61.0
2017-10-07T08:17:22.734Z,60.7
2017-10-07T08:22:03.115Z,60.6
2017-10-07T08:27:03.367Z,62.0
2017-10-07T08:32:23.112Z,62.0
2017-10-07T08:37:03.802Z,62.6
2017-10-07T08:42:03.037Z,63.0
2017-10-07T08:47:24.855Z,63.3
2017-10-07T08:52:03.795Z,63.1
2017-10-07T08:57:02.960Z,63.2
2017-10-07T09:02:23.682Z,61.9
2017-10-07T09:07:03.234Z,61.8
2017-10-07T09:12:03.762Z,61.1
2017-10-07T09:17:26.274Z,60.9
2017-10-07T09:22:03.907Z,60.5
2017-10-07T09:27:03.169Z,60.5
2017-10-07T09:32:23.687Z,60.3
2017-10-07T09:37:03.196Z,60.5
2017-10-07T09:42:03.358Z,60.3
2017-10-07T09:47:23.748Z,60.2
2017-10-07T09:52:03.502Z,60.5
2017-10-07T09:57:03.569Z,61.0
2017-10-07T10:02:30.581Z,60.1
2017-10-07T10:07:03.358Z,61.0
2017-10-07T10:12:03.167Z,61.2
2017-10-07T10:17:27.586Z,60.7
2017-10-07T10:22:03.157Z,60.6
2017-10-07T10:27:03.767Z,61.1
2017-10-07T10:32:24.711Z,59.7
2017-10-07T10:37:03.455Z,59.6
2017-10-07T10:42:03.768Z,59.6
2017-10-07T10:47:23.715Z,60.8
2017-10-07T10:52:02.929Z,60.7
2017-10-07T10:57:03.248Z,60.8
2017-10-07T11:02:27.141Z,60.8
2017-10-07T11:07:03.543Z,60.9
2017-10-07T11:12:03.902Z,61.0
2017-10-07T11:17:25.910Z,61.0
2017-10-07T11:22:03.542Z,60.2
2017-10-07T11:27:03.766Z,60.0
2017-10-07T11:32:23.763Z,60.3
2017-10-07T11:37:03.713Z,60.2
2017-10-07T11:42:03.889Z,60.3
2017-10-07T11:47:28.438Z,59.9
2017-10-07T11:52:03.325Z,60.4
2017-10-07T11:57:03.654Z,60.2
2017-10-07T12:02:18.072Z,59.3
2017-10-07T12:07:03.477Z,59.2
2017-10-07T12:12:03.801Z,59.5
2017-10-07T12:17:24.647Z,59.7
2017-10-07T12:22:03.235Z,60.1
2017-10-07T12:27:03.622Z,60.0
2017-10-07T12:32:20.573Z,59.4
2017-10-07T12:37:03.871Z,58.8
2017-10-07T12:42:03.053Z,59.4
2017-10-07T12:47:27.575Z,59.4
2017-10-07T12:52:03.791Z,58.8
2017-10-07T12:57:03.045Z,59.2
2017-10-07T13:02:28.526Z,58.8
2017-10-07T13:07:03.668Z,58.9
2017-10-07T13:12:03.985Z,58.9
2017-10-07T13:17:24.909Z,59.4
2017-10-07T13:22:03.499Z,60.2
2017-10-07T13:27:03.136Z,60.0
2017-10-07T13:32:28.344Z,60.0
2017-10-07T13:37:03.753Z,59.8
2017-10-07T13:42:03.897Z,60.0
2017-10-07T13:47:23.559Z,60.5
2017-10-07T13:52:03.548Z,60.4
2017-10-07T13:57:03.753Z,60.3
2017-10-07T14:02:31.720Z,60.6
2017-10-07T14:07:03.870Z,60.4
2017-10-07T14:12:03.338Z,60.7
2017-10-07T14:17:23.453Z,60.9
2017-10-07T14:22:03.334Z,61.0
2017-10-07T14:27:03.458Z,60.8
2017-10-07T14:32:23.704Z,60.6
2017-10-07T14:37:03.654Z,60.8
2017-10-07T14:42:03.817Z,60.7
2017-10-07T14:47:24.559Z,60.8
2017-10-07T14:52:03.335Z,60.9
2017-10-07T14:57:03.579Z,61.1
2017-10-07T15:02:22.399Z,61.5
2017-10-07T15:07:03.655Z,61.3
2017-10-07T15:12:03.888Z,61.5
2017-10-07T15:17:22.058Z,62.0
2017-10-07T15:22:03.745Z,62.0
2017-10-07T15:27:03.837Z,62.0
2017-10-07T15:32:23.099Z,62.6
2017-10-07T15:37:03.385Z,62.6
2017-10-07T15:42:03.262Z,62.5
2017-10-07T15:47:23.526Z,62.6
2017-10-07T15:52:03.825Z,62.7
2017-10-07T15:57:02.950Z,63.0
2017-10-07T16:02:21.818Z,63.1
2017-10-07T16:07:03.760Z,63.2
2017-10-07T16:12:03.110Z,63.1
2017-10-07T16:17:23.425Z,62.7
2017-10-07T16:22:03.719Z,62.7
2017-10-07T16:27:03.876Z,62.8
2017-10-07T16:32:27.660Z,63.0
2017-10-07T16:37:03.828Z,63.0
2017-10-07T16:42:03.148Z,63.1
2017-10-07T16:47:32.873Z,63.2
2017-10-07T16:52:03.152Z,63.3
2017-10-07T16:57:03.894Z,63.5
2017-10-07T17:02:27.916Z,63.6
2017-10-07T17:07:03.478Z,63.6
2017-10-07T17:12:03.700Z,63.6
2017-10-07T17:17:18.807Z,63.6
2017-10-07T17:22:03.162Z,63.7
2017-10-07T17:27:03.389Z,63.7
2017-10-07T17:32:04.986Z,63.7
2017-10-07T17:37:03.608Z,63.8
2017-10-07T17:42:03.608Z,63.8
2017-10-07T17:47:03.808Z,63.6
2017-10-07T17:52:03.891Z,63.7
2017-10-07T17:57:03.000Z,63.6
2017-10-07T18:02:03.209Z,63.4
2017-10-07T18:07:03.324Z,63.4
2017-10-07T18:12:03.571Z,63.3
2017-10-07T18:17:03.756Z,63.2
2017-10-07T18:22:03.814Z,63.2
2017-10-07T18:27:03.915Z,63.2
2017-10-07T18:32:03.058Z,63.3
2017-10-07T18:37:03.298Z,63.3
2017-10-07T18:42:03.314Z,63.3
2017-10-07T18:47:03.429Z,63.3
2017-10-07T18:52:04.306Z,63.4
2017-10-07T18:57:03.949Z,63.3
2017-10-07T19:02:03.750Z,63.5
2017-10-07T19:07:03.903Z,63.4
2017-10-07T19:12:03.218Z,63.5
2017-10-07T19:17:04.229Z,63.5
2017-10-07T19:22:03.627Z,63.5
2017-10-07T19:27:03.667Z,63.4
2017-10-07T19:32:03.805Z,63.6
2017-10-07T19:37:03.854Z,63.6
2017-10-07T19:42:03.064Z,63.4
2017-10-07T19:47:03.193Z,63.4
2017-10-07T19:52:03.686Z,63.4
2017-10-07T19:57:03.400Z,63.5
2017-10-07T20:02:03.918Z,63.4
2017-10-07T20:07:03.762Z,63.3
2017-10-07T20:12:03.083Z,63.4
2017-10-07T20:17:03.742Z,63.4
2017-10-07T20:22:03.503Z,63.4
2017-10-07T20:27:03.932Z,63.4
2017-10-07T20:32:03.939Z,63.3
2017-10-07T20:37:03.719Z,63.3
2017-10-07T20:42:03.748Z,63.3
2017-10-07T20:47:03.939Z,63.4
2017-10-07T20:52:02.996Z,63.4
2017-10-07T20:57:03.229Z,63.3
2017-10-07T21:02:03.503Z,63.4
2017-10-07T21:07:03.488Z,63.4
2017-10-07T21:12:03.800Z,63.3
2017-10-07T21:17:03.917Z,63.1
2017-10-07T21:22:03.118Z,63.0
2017-10-07T21:27:03.290Z,63.1
2017-10-07T21:32:03.422Z,63.1
2017-10-07T21:37:03.460Z,63.0
2017-10-07T21:42:03.492Z,63.1
2017-10-07T21:47:03.611Z,63.1
2017-10-07T21:52:03.695Z,63.0
2017-10-07T21:57:03.786Z,62.9
2017-10-07T22:02:02.928Z,62.2
2017-10-07T22:07:03.686Z,62.8
2017-10-07T22:12:03.783Z,62.8
2017-10-07T22:22:03.996Z,62.6
2017-10-07T22:27:03.547Z,63.1
2017-10-07T22:32:03.293Z,63.2
2017-10-07T22:37:03.938Z,63.3
2017-10-07T22:42:03.780Z,63.3
2017-10-07T22:47:03.565Z,63.3
2017-10-07T22:52:02.968Z,63.2
2017-10-07T22:57:03.635Z,64.5
2017-10-07T23:02:03.356Z,65.2
2017-10-07T23:07:03.202Z,65.1
2017-10-07T23:12:03.098Z,67.6
2017-10-07T23:17:03.706Z,67.6
2017-10-07T23:22:03.030Z,68.4
2017-10-07T23:27:03.699Z,68.3
2017-10-07T23:32:03.268Z,68.1
2017-10-07T23:37:03.934Z,67.9
2017-10-07T23:42:03.711Z,67.7
2017-10-07T23:47:03.203Z,66.1
2017-10-07T23:52:03.754Z,66.1
2017-10-07T23:57:03.203Z,65.4
